KVTN/VTN METAR and TAF weather

Enter ICAO airport designator
Station Type Date Time Source
KVTN METAR 2019/12/08 23:52 UTC NOAA

KVTN 082352Z AUTO 20009KT 10SM SCT110 08/00 A2954 RMK AO2 SLP018 T00780000 10128 20072 56013


Station Type Date Time Source
KVTN Decoded METAR 2019/12/08 23:52 UTC NOAA

MILLER FIELD - VALENTINE, NE, NE, United States (KVTN) 42-52N 100-33W 788M
Dec 08, 2019 - 06:52 PM EST / 2019.12.08 2352 UTC
Wind: from the SSW (200 degrees) at 10 MPH (9 KT):0
Visibility: 10 mile(s):0
Sky conditions: partly cloudy
Temperature: 46.0 F (7.8 C)
Dew Point: 32.0 F (0.0 C)
Relative Humidity: 57%
Pressure (altimeter): 29.54 in. Hg (1000 hPa)
Pressure tendency: 0.04 inches (1.3 hPa) lower than three hours ago
ob: KVTN 082352Z AUTO 20009KT 10SM SCT110 08/00 A2954 RMK AO2 SLP018 T00780000 10128 20072 56013
cycle: 0

Station Type Date Time Source
KVTN TAF 2019/12/08 18:22 UTC NOAA

TAF KVTN 081720Z 0818/0918 23005KT P6SM SCT200
FM082100 19009KT P6SM BKN200
FM090200 29012KT P6SM BKN007 BKN015
FM090400 33015G23KT P6SM VCSH OVC007
TEMPO 0904/0906 5SM -FZDZSN
FM090600 33019G26KT 5SM -SN BKN007 BKN015
FM091000 32017G23KT P6SM BKN015
FM091600 31012KT P6SM BKN250

Example: see airport list